sensor_id;sensor_type;location;lat;lon;timestamp;pressure;altitude;pressure_sealevel;temperature;humidity
8039;BME280;4062;49.844;8.120;2024-03-02T00:00:23;98092.50;;;13.43;57.33
8039;BME280;4062;49.844;8.120;2024-03-02T00:02:26;98095.25;;;13.41;57.35
8039;BME280;4062;49.844;8.120;2024-03-02T00:04:27;98098.69;;;13.43;57.39
8039;BME280;4062;49.844;8.120;2024-03-02T00:06:28;98104.94;;;13.42;57.27
8039;BME280;4062;49.844;8.120;2024-03-02T00:08:30;98103.13;;;13.43;57.33
8039;BME280;4062;49.844;8.120;2024-03-02T00:10:40;98103.13;;;13.43;57.24
8039;BME280;4062;49.844;8.120;2024-03-02T00:12:42;98106.72;;;13.42;57.18
8039;BME280;4062;49.844;8.120;2024-03-02T00:14:43;98104.06;;;13.42;57.32
8039;BME280;4062;49.844;8.120;2024-03-02T00:16:44;98105.00;;;13.41;57.35
8039;BME280;4062;49.844;8.120;2024-03-02T00:18:46;98100.56;;;13.41;57.34
8039;BME280;4062;49.844;8.120;2024-03-02T00:20:47;98102.34;;;13.41;57.34
8039;BME280;4062;49.844;8.120;2024-03-02T00:22:51;98097.03;;;13.41;57.31
8039;BME280;4062;49.844;8.120;2024-03-02T00:24:54;98100.56;;;13.41;57.38
8039;BME280;4062;49.844;8.120;2024-03-02T00:26:55;98098.84;;;13.40;57.39
8039;BME280;4062;49.844;8.120;2024-03-02T00:28:57;98102.34;;;13.41;57.41
8039;BME280;4062;49.844;8.120;2024-03-02T00:31:01;98100.56;;;13.41;57.16
8039;BME280;4062;49.844;8.120;2024-03-02T00:33:07;98097.91;;;13.41;57.41
8039;BME280;4062;49.844;8.120;2024-03-02T00:35:08;98105.88;;;13.41;57.39
8039;BME280;4062;49.844;8.120;2024-03-02T00:37:11;98100.56;;;13.41;57.30
8039;BME280;4062;49.844;8.120;2024-03-02T00:39:15;98093.44;;;13.42;57.31
8039;BME280;4062;49.844;8.120;2024-03-02T00:41:24;98096.09;;;13.42;57.30
8039;BME280;4062;49.844;8.120;2024-03-02T00:45:49;98097.03;;;13.41;57.27
8039;BME280;4062;49.844;8.120;2024-03-02T00:47:50;98093.44;;;13.42;57.27
8039;BME280;4062;49.844;8.120;2024-03-02T00:49:52;98095.25;;;13.41;57.23
8039;BME280;4062;49.844;8.120;2024-03-02T00:51:54;98089.06;;;13.41;57.37
8039;BME280;4062;49.844;8.120;2024-03-02T00:54:00;98088.22;;;13.40;57.41
8039;BME280;4062;49.844;8.120;2024-03-02T00:56:02;98082.94;;;13.40;57.20
8039;BME280;4062;49.844;8.120;2024-03-02T00:58:03;98088.22;;;13.40;57.33
8039;BME280;4062;49.844;8.120;2024-03-02T01:00:05;98085.56;;;13.40;57.33
8039;BME280;4062;49.844;8.120;2024-03-02T01:02:10;98088.22;;;13.40;57.25
8039;BME280;4062;49.844;8.120;2024-03-02T01:04:12;98084.75;;;13.40;57.17
8039;BME280;4062;49.844;8.120;2024-03-02T01:06:15;98082.09;;;13.40;57.54
8039;BME280;4062;49.844;8.120;2024-03-02T01:08:17;98083.88;;;13.39;57.32
8039;BME280;4062;49.844;8.120;2024-03-02T01:10:18;98081.22;;;13.39;57.34
8039;BME280;4062;49.844;8.120;2024-03-02T01:12:19;98082.09;;;13.40;57.26
8039;BME280;4062;49.844;8.120;2024-03-02T01:14:20;98082.09;;;13.40;57.41
8039;BME280;4062;49.844;8.120;2024-03-02T01:16:22;98081.22;;;13.39;57.33
8039;BME280;4062;49.844;8.120;2024-03-02T01:18:23;98081.22;;;13.39;57.29
8039;BME280;4062;49.844;8.120;2024-03-02T01:20:25;98075.06;;;13.39;57.35
8039;BME280;4062;49.844;8.120;2024-03-02T01:22:26;98076.78;;;13.40;57.39
8039;BME280;4062;49.844;8.120;2024-03-02T01:24:27;98073.25;;;13.39;57.33
8039;BME280;4062;49.844;8.120;2024-03-02T01:26:28;98070.59;;;13.39;57.32
8039;BME280;4062;49.844;8.120;2024-03-02T01:28:29;98073.25;;;13.39;57.30
8039;BME280;4062;49.844;8.120;2024-03-02T01:30:31;98067.09;;;13.39;57.42
8039;BME280;4062;49.844;8.120;2024-03-02T01:32:32;98065.28;;;13.39;57.32
8039;BME280;4062;49.844;8.120;2024-03-02T01:34:33;98060.00;;;13.39;57.20
8039;BME280;4062;49.844;8.120;2024-03-02T01:36:35;98060.91;;;13.38;57.38
8039;BME280;4062;49.844;8.120;2024-03-02T01:38:36;98061.81;;;13.39;57.38
8039;BME280;4062;49.844;8.120;2024-03-02T01:40:38;98051.19;;;13.39;57.32
8039;BME280;4062;49.844;8.120;2024-03-02T01:42:39;98056.50;;;13.39;57.32
8039;BME280;4062;49.844;8.120;2024-03-02T01:44:41;98060.91;;;13.38;57.31
8039;BME280;4062;49.844;8.120;2024-03-02T01:46:42;98060.91;;;13.38;57.33
8039;BME280;4062;49.844;8.120;2024-03-02T01:48:43;98058.25;;;13.38;57.21
8039;BME280;4062;49.844;8.120;2024-03-02T01:50:44;98071.50;;;13.38;57.19
8039;BME280;4062;49.844;8.120;2024-03-02T01:52:46;98060.91;;;13.38;57.27
8039;BME280;4062;49.844;8.120;2024-03-02T01:54:47;98063.56;;;13.38;57.35
8039;BME280;4062;49.844;8.120;2024-03-02T01:56:48;98060.91;;;13.38;57.44
8039;BME280;4062;49.844;8.120;2024-03-02T01:58:49;98053.84;;;13.39;57.35
8039;BME280;4062;49.844;8.120;2024-03-02T02:00:51;98056.53;;;13.37;57.30
8039;BME280;4062;49.844;8.120;2024-03-02T02:02:52;98055.59;;;13.38;57.33
8039;BME280;4062;49.844;8.120;2024-03-02T02:04:54;98038.84;;;13.38;57.33
8039;BME280;4062;49.844;8.120;2024-03-02T02:06:55;98047.72;;;13.37;57.36
8039;BME280;4062;49.844;8.120;2024-03-02T02:08:56;98039.78;;;13.37;57.34
8039;BME280;4062;49.844;8.120;2024-03-02T02:10:58;98039.78;;;13.37;57.34
8039;BME280;4062;49.844;8.120;2024-03-02T02:13:00;98037.97;;;13.37;57.35
8039;BME280;4062;49.844;8.120;2024-03-02T02:15:01;98038.91;;;13.36;57.24
8039;BME280;4062;49.844;8.120;2024-03-02T02:17:04;98035.31;;;13.37;57.39
8039;BME280;4062;49.844;8.120;2024-03-02T02:19:05;98030.00;;;13.37;57.38
8039;BME280;4062;49.844;8.120;2024-03-02T02:21:07;98030.94;;;13.36;57.39
8039;BME280;4062;49.844;8.120;2024-03-02T02:23:08;98025.63;;;13.36;57.21
8039;BME280;4062;49.844;8.120;2024-03-02T02:25:10;98026.50;;;13.37;57.15
8039;BME280;4062;49.844;8.120;2024-03-02T02:27:12;98029.16;;;13.37;57.30
8039;BME280;4062;49.844;8.120;2024-03-02T02:29:16;98023.84;;;13.37;57.35
8039;BME280;4062;49.844;8.120;2024-03-02T02:31:19;98021.19;;;13.37;57.35
8039;BME280;4062;49.844;8.120;2024-03-02T02:33:21;98016.84;;;13.36;57.25
8039;BME280;4062;49.844;8.120;2024-03-02T02:35:22;98024.69;;;13.37;57.25
8039;BME280;4062;49.844;8.120;2024-03-02T02:37:25;98015.03;;;13.36;57.32
8039;BME280;4062;49.844;8.120;2024-03-02T02:39:26;98011.44;;;13.37;57.29
8039;BME280;4062;49.844;8.120;2024-03-02T02:41:28;98007.06;;;13.36;57.28
8039;BME280;4062;49.844;8.120;2024-03-02T02:43:29;98007.06;;;13.36;57.31
8039;BME280;4062;49.844;8.120;2024-03-02T02:45:30;98005.28;;;13.37;57.30
8039;BME280;4062;49.844;8.120;2024-03-02T02:47:31;98007.06;;;13.36;57.36
8039;BME280;4062;49.844;8.120;2024-03-02T02:49:36;98002.72;;;13.35;57.32
8039;BME280;4062;49.844;8.120;2024-03-02T02:51:37;97994.78;;;13.35;57.23
8039;BME280;4062;49.844;8.120;2024-03-02T02:53:38;97992.97;;;13.36;57.24
8039;BME280;4062;49.844;8.120;2024-03-02T02:55:41;98003.56;;;13.36;57.31
8039;BME280;4062;49.844;8.120;2024-03-02T02:57:44;97993.91;;;13.35;57.37
8039;BME280;4062;49.844;8.120;2024-03-02T02:59:46;98000.91;;;13.36;57.23
8039;BME280;4062;49.844;8.120;2024-03-02T03:01:47;97999.22;;;13.35;57.38
8039;BME280;4062;49.844;8.120;2024-03-02T03:03:49;98003.56;;;13.36;57.28
8039;BME280;4062;49.844;8.120;2024-03-02T03:05:50;97994.78;;;13.35;57.35
8039;BME280;4062;49.844;8.120;2024-03-02T03:07:51;97997.44;;;13.35;57.42
8039;BME280;4062;49.844;8.120;2024-03-02T03:09:52;97997.44;;;13.35;57.40
8039;BME280;4062;49.844;8.120;2024-03-02T03:11:54;97999.22;;;13.35;57.37
8039;BME280;4062;49.844;8.120;2024-03-02T03:13:55;97995.63;;;13.36;57.36
8039;BME280;4062;49.844;8.120;2024-03-02T03:15:56;97994.78;;;13.35;57.28
8039;BME280;4062;49.844;8.120;2024-03-02T03:18:00;97996.56;;;13.35;57.30
8039;BME280;4062;49.844;8.120;2024-03-02T03:20:02;97993.91;;;13.35;57.26
8039;BME280;4062;49.844;8.120;2024-03-02T03:22:05;97992.97;;;13.36;57.25
8039;BME280;4062;49.844;8.120;2024-03-02T03:24:06;97989.47;;;13.35;57.42
8039;BME280;4062;49.844;8.120;2024-03-02T03:26:07;97989.47;;;13.35;57.36
8039;BME280;4062;49.844;8.120;2024-03-02T03:28:09;97986.81;;;13.35;57.32
8039;BME280;4062;49.844;8.120;2024-03-02T03:30:13;97990.31;;;13.36;57.41
8039;BME280;4062;49.844;8.120;2024-03-02T03:32:14;97985.00;;;13.36;57.36
8039;BME280;4062;49.844;8.120;2024-03-02T03:34:16;97984.22;;;13.34;57.27
8039;BME280;4062;49.844;8.120;2024-03-02T03:36:17;97968.25;;;13.35;57.33
8039;BME280;4062;49.844;8.120;2024-03-02T03:38:18;97982.34;;;13.36;57.26
8039;BME280;4062;49.844;8.120;2024-03-02T03:40:20;97980.63;;;13.35;57.59
8039;BME280;4062;49.844;8.120;2024-03-02T03:42:21;97992.13;;;13.35;57.35
8039;BME280;4062;49.844;8.120;2024-03-02T03:44:22;97991.25;;;13.35;57.37
8039;BME280;4062;49.844;8.120;2024-03-02T03:46:23;97992.19;;;13.34;57.37
8039;BME280;4062;49.844;8.120;2024-03-02T03:48:25;97986.81;;;13.35;57.38
8039;BME280;4062;49.844;8.120;2024-03-02T03:50:31;97986.81;;;13.35;57.02
8039;BME280;4062;49.844;8.120;2024-03-02T03:52:32;97983.38;;;13.33;57.21
8039;BME280;4062;49.844;8.120;2024-03-02T03:54:34;97990.41;;;13.34;57.23
8039;BME280;4062;49.844;8.120;2024-03-02T03:56:38;97992.19;;;13.34;57.25
8039;BME280;4062;49.844;8.120;2024-03-02T03:58:39;97997.44;;;13.35;57.24
8039;BME280;4062;49.844;8.120;2024-03-02T04:00:40;97997.50;;;13.34;57.39
8039;BME280;4062;49.844;8.120;2024-03-02T04:02:42;97992.19;;;13.34;57.29
8039;BME280;4062;49.844;8.120;2024-03-02T04:04:43;97997.50;;;13.34;57.39
8039;BME280;4062;49.844;8.120;2024-03-02T04:06:44;97995.72;;;13.34;57.24
8039;BME280;4062;49.844;8.120;2024-03-02T04:08:45;98001.03;;;13.34;57.40
8039;BME280;4062;49.844;8.120;2024-03-02T04:10:47;98003.66;;;13.34;57.32
8039;BME280;4062;49.844;8.120;2024-03-02T04:12:49;97996.66;;;13.33;57.34
8039;BME280;4062;49.844;8.120;2024-03-02T04:14:51;97992.19;;;13.34;57.36
8039;BME280;4062;49.844;8.120;2024-03-02T04:16:52;97991.34;;;13.33;57.37
8039;BME280;4062;49.844;8.120;2024-03-02T04:18:54;97998.38;;;13.34;57.36
8039;BME280;4062;49.844;8.120;2024-03-02T04:20:55;97996.66;;;13.33;57.26
8039;BME280;4062;49.844;8.120;2024-03-02T04:22:56;98003.66;;;13.34;57.26
8039;BME280;4062;49.844;8.120;2024-03-02T04:24:57;98008.09;;;13.34;57.36
8039;BME280;4062;49.844;8.120;2024-03-02T04:26:59;98009.03;;;13.33;57.31
8039;BME280;4062;49.844;8.120;2024-03-02T04:29:00;98018.72;;;13.34;57.42
8039;BME280;4062;49.844;8.120;2024-03-02T04:31:02;98012.56;;;13.33;57.39
8039;BME280;4062;49.844;8.120;2024-03-02T04:33:04;98009.91;;;13.33;57.24
8039;BME280;4062;49.844;8.120;2024-03-02T04:35:07;98015.22;;;13.33;57.42
8039;BME280;4062;49.844;8.120;2024-03-02T04:37:11;98019.59;;;13.34;57.27
8039;BME280;4062;49.844;8.120;2024-03-02T04:39:16;98017.78;;;13.35;57.26
8039;BME280;4062;49.844;8.120;2024-03-02T04:41:18;98018.66;;;13.35;57.31
8039;BME280;4062;49.844;8.120;2024-03-02T04:43:19;98019.50;;;13.36;57.19
8039;BME280;4062;49.844;8.120;2024-03-02T04:45:20;98016.00;;;13.35;57.16
8039;BME280;4062;49.844;8.120;2024-03-02T04:47:21;98020.34;;;13.36;57.24
8039;BME280;4062;49.844;8.120;2024-03-02T04:49:23;98015.03;;;13.36;57.23
8039;BME280;4062;49.844;8.120;2024-03-02T04:51:25;98022.97;;;13.36;57.31
8039;BME280;4062;49.844;8.120;2024-03-02T04:53:26;98013.25;;;13.37;57.27
8039;BME280;4062;49.844;8.120;2024-03-02T04:55:27;98024.69;;;13.37;57.11
8039;BME280;4062;49.844;8.120;2024-03-02T04:57:28;98028.22;;;13.38;57.20
8039;BME280;4062;49.844;8.120;2024-03-02T04:59:29;98036.19;;;13.38;57.06
8039;BME280;4062;49.844;8.120;2024-03-02T05:01:31;98040.63;;;13.37;57.20
8039;BME280;4062;49.844;8.120;2024-03-02T05:03:34;98043.22;;;13.39;57.26
8039;BME280;4062;49.844;8.120;2024-03-02T05:05:35;98050.28;;;13.38;57.27
8039;BME280;4062;49.844;8.120;2024-03-02T05:07:38;98052.94;;;13.38;57.19
8039;BME280;4062;49.844;8.120;2024-03-02T05:09:40;98052.09;;;13.38;57.16
8039;BME280;4062;49.844;8.120;2024-03-02T05:11:41;98064.44;;;13.39;57.13
8039;BME280;4062;49.844;8.120;2024-03-02T05:13:45;98061.81;;;13.39;57.12
8039;BME280;4062;49.844;8.120;2024-03-02T05:15:46;98057.41;;;13.38;57.15
8039;BME280;4062;49.844;8.120;2024-03-02T05:17:48;98062.72;;;13.38;57.17
8039;BME280;4062;49.844;8.120;2024-03-02T05:19:49;98067.09;;;13.39;57.30
8039;BME280;4062;49.844;8.120;2024-03-02T05:21:50;98063.56;;;13.38;57.26
8039;BME280;4062;49.844;8.120;2024-03-02T05:23:52;98064.44;;;13.39;57.09
8039;BME280;4062;49.844;8.120;2024-03-02T05:25:54;98062.63;;;13.39;57.13
8039;BME280;4062;49.844;8.120;2024-03-02T05:27:55;98071.47;;;13.40;57.16
8039;BME280;4062;49.844;8.120;2024-03-02T05:29:57;98071.47;;;13.40;57.27
8039;BME280;4062;49.844;8.120;2024-03-02T05:31:59;98067.00;;;13.40;57.12
8039;BME280;4062;49.844;8.120;2024-03-02T05:34:00;98065.19;;;13.41;57.33
8039;BME280;4062;49.844;8.120;2024-03-02T05:36:01;98063.41;;;13.41;57.20
8039;BME280;4062;49.844;8.120;2024-03-02T05:38:03;98072.16;;;13.43;57.12
8039;BME280;4062;49.844;8.120;2024-03-02T05:40:05;98078.41;;;13.42;57.16
8039;BME280;4062;49.844;8.120;2024-03-02T05:42:06;98081.88;;;13.43;57.16
8039;BME280;4062;49.844;8.120;2024-03-02T05:44:08;98081.88;;;13.43;57.33
8039;BME280;4062;49.844;8.120;2024-03-02T05:46:09;98072.16;;;13.43;57.19
8039;BME280;4062;49.844;8.120;2024-03-02T05:48:10;98074.81;;;13.43;57.15
8039;BME280;4062;49.844;8.120;2024-03-02T05:50:11;98065.97;;;13.43;57.19
8039;BME280;4062;49.844;8.120;2024-03-02T05:52:13;98074.69;;;13.45;57.17
8039;BME280;4062;49.844;8.120;2024-03-02T05:54:14;98070.34;;;13.44;57.20
8039;BME280;4062;49.844;8.120;2024-03-02T05:56:15;98067.69;;;13.44;57.15
8039;BME280;4062;49.844;8.120;2024-03-02T05:58:16;98079.16;;;13.44;57.10
8039;BME280;4062;49.844;8.120;2024-03-02T06:00:34;98072.91;;;13.45;57.03
8039;BME280;4062;49.844;8.120;2024-03-02T06:02:39;98071.22;;;13.44;57.21
8039;BME280;4062;49.844;8.120;2024-03-02T06:04:40;98064.94;;;13.45;57.15
8039;BME280;4062;49.844;8.120;2024-03-02T06:06:41;98068.56;;;13.44;57.11
8039;BME280;4062;49.844;8.120;2024-03-02T06:08:43;98069.41;;;13.45;57.09
8039;BME280;4062;49.844;8.120;2024-03-02T06:10:44;98070.25;;;13.45;57.05
8039;BME280;4062;49.844;8.120;2024-03-02T06:12:45;98063.25;;;13.44;57.22
8039;BME280;4062;49.844;8.120;2024-03-02T06:14:46;98065.91;;;13.44;57.19
8039;BME280;4062;49.844;8.120;2024-03-02T06:16:48;98065.91;;;13.44;57.05
8039;BME280;4062;49.844;8.120;2024-03-02T06:18:49;98067.59;;;13.45;57.20
8039;BME280;4062;49.844;8.120;2024-03-02T06:20:50;98061.44;;;13.45;57.08
8039;BME280;4062;49.844;8.120;2024-03-02T06:22:51;98070.25;;;13.45;57.09
8039;BME280;4062;49.844;8.120;2024-03-02T06:24:52;98064.94;;;13.45;57.15
8039;BME280;4062;49.844;8.120;2024-03-02T06:26:54;98069.41;;;13.45;57.09
8039;BME280;4062;49.844;8.120;2024-03-02T06:28:55;98072.91;;;13.45;57.09
8039;BME280;4062;49.844;8.120;2024-03-02T06:30:56;98068.56;;;13.44;57.24
8039;BME280;4062;49.844;8.120;2024-03-02T06:32:57;98077.34;;;13.45;57.14
8039;BME280;4062;49.844;8.120;2024-03-02T06:34:59;98074.69;;;13.45;57.13
8039;BME280;4062;49.844;8.120;2024-03-02T06:37:00;98080.00;;;13.45;57.16
8039;BME280;4062;49.844;8.120;2024-03-02T06:39:02;98081.81;;;13.44;57.05
8039;BME280;4062;49.844;8.120;2024-03-02T06:41:03;98086.25;;;13.44;57.03
8039;BME280;4062;49.844;8.120;2024-03-02T06:43:04;98093.28;;;13.45;57.11
8039;BME280;4062;49.844;8.120;2024-03-02T06:45:06;98092.44;;;13.44;57.11
8039;BME280;4062;49.844;8.120;2024-03-02T06:47:07;98101.34;;;13.43;57.09
8039;BME280;4062;49.844;8.120;2024-03-02T06:49:08;98095.09;;;13.44;57.18
8039;BME280;4062;49.844;8.120;2024-03-02T06:51:11;98088.91;;;13.44;57.16
8039;BME280;4062;49.844;8.120;2024-03-02T06:53:12;98099.53;;;13.44;57.11
8039;BME280;4062;49.844;8.120;2024-03-02T06:55:14;98084.47;;;13.44;57.18
8039;BME280;4062;49.844;8.120;2024-03-02T06:57:15;98091.56;;;13.44;57.19
8039;BME280;4062;49.844;8.120;2024-03-02T06:59:18;98096.88;;;13.44;57.22
8039;BME280;4062;49.844;8.120;2024-03-02T07:01:19;98096.03;;;13.43;57.15
8039;BME280;4062;49.844;8.120;2024-03-02T07:03:21;98096.03;;;13.43;57.10
8039;BME280;4062;49.844;8.120;2024-03-02T07:05:22;98085.41;;;13.43;57.17
8039;BME280;4062;49.844;8.120;2024-03-02T07:07:23;98085.41;;;13.43;57.20
8039;BME280;4062;49.844;8.120;2024-03-02T07:09:25;98091.56;;;13.44;57.19
8039;BME280;4062;49.844;8.120;2024-03-02T07:11:26;98093.38;;;13.43;57.18
8039;BME280;4062;49.844;8.120;2024-03-02T07:13:28;98090.72;;;13.43;57.22
8039;BME280;4062;49.844;8.120;2024-03-02T07:15:29;98097.81;;;13.43;57.14
8039;BME280;4062;49.844;8.120;2024-03-02T07:17:49;98103.13;;;13.43;57.17
8039;BME280;4062;49.844;8.120;2024-03-02T07:19:50;98104.00;;;13.43;57.18
8039;BME280;4062;49.844;8.120;2024-03-02T07:21:51;98110.22;;;13.42;57.14
8039;BME280;4062;49.844;8.120;2024-03-02T07:23:53;98102.28;;;13.42;57.18
8039;BME280;4062;49.844;8.120;2024-03-02T07:25:54;98108.41;;;13.43;57.18
8039;BME280;4062;49.844;8.120;2024-03-02T07:27:57;98110.22;;;13.42;57.23
8039;BME280;4062;49.844;8.120;2024-03-02T07:29:58;98109.34;;;13.42;57.25
8039;BME280;4062;49.844;8.120;2024-03-02T07:31:59;98118.19;;;13.42;57.20
8039;BME280;4062;49.844;8.120;2024-03-02T07:34:01;98110.22;;;13.42;57.09
8039;BME280;4062;49.844;8.120;2024-03-02T07:36:03;98113.72;;;13.43;57.13
8039;BME280;4062;49.844;8.120;2024-03-02T07:38:04;98118.19;;;13.42;57.25
8039;BME280;4062;49.844;8.120;2024-03-02T07:40:06;98112.88;;;13.42;57.19
8039;BME280;4062;49.844;8.120;2024-03-02T07:42:10;98120.84;;;13.42;57.09
8039;BME280;4062;49.844;8.120;2024-03-02T07:44:12;98127.00;;;13.43;57.20
8039;BME280;4062;49.844;8.120;2024-03-02T07:46:16;98124.44;;;13.41;57.12
8039;BME280;4062;49.844;8.120;2024-03-02T07:48:18;98129.66;;;13.43;57.10
8039;BME280;4062;49.844;8.120;2024-03-02T07:50:20;98133.22;;;13.42;57.26
8039;BME280;4062;49.844;8.120;2024-03-02T07:52:21;98134.09;;;13.42;57.21
8039;BME280;4062;49.844;8.120;2024-03-02T07:54:22;98134.09;;;13.42;57.11
8039;BME280;4062;49.844;8.120;2024-03-02T07:56:23;98130.59;;;13.42;57.16
8039;BME280;4062;49.844;8.120;2024-03-02T07:58:25;98128.81;;;13.42;57.23
8039;BME280;4062;49.844;8.120;2024-03-02T08:00:26;98134.09;;;13.42;57.19
8039;BME280;4062;49.844;8.120;2024-03-02T08:02:28;98134.94;;;13.43;57.24
8039;BME280;4062;49.844;8.120;2024-03-02T08:04:30;98137.59;;;13.43;57.06
8039;BME280;4062;49.844;8.120;2024-03-02T08:06:31;98141.13;;;13.43;57.03
8039;BME280;4062;49.844;8.120;2024-03-02T08:08:32;98141.13;;;13.43;57.10
8039;BME280;4062;49.844;8.120;2024-03-02T08:10:34;98139.31;;;13.44;57.13
8039;BME280;4062;49.844;8.120;2024-03-02T08:12:35;98144.63;;;13.44;57.15
8039;BME280;4062;49.844;8.120;2024-03-02T08:14:36;98142.84;;;13.44;57.17
8039;BME280;4062;49.844;8.120;2024-03-02T08:16:37;98148.16;;;13.44;57.17
8039;BME280;4062;49.844;8.120;2024-03-02T08:18:39;98148.16;;;13.44;57.05
8039;BME280;4062;49.844;8.120;2024-03-02T08:20:41;98153.47;;;13.44;57.16
8039;BME280;4062;49.844;8.120;2024-03-02T08:22:42;98148.16;;;13.44;57.17
8039;BME280;4062;49.844;8.120;2024-03-02T08:24:43;98144.63;;;13.44;57.12
8039;BME280;4062;49.844;8.120;2024-03-02T08:26:45;98149.94;;;13.44;57.13
8039;BME280;4062;49.844;8.120;2024-03-02T08:29:12;98147.19;;;13.45;57.13
8039;BME280;4062;49.844;8.120;2024-03-02T08:31:14;98137.53;;;13.44;57.13
8039;BME280;4062;49.844;8.120;2024-03-02T08:33:15;98145.50;;;13.44;57.16
8039;BME280;4062;49.844;8.120;2024-03-02T08:35:16;98134.88;;;13.44;57.16
8039;BME280;4062;49.844;8.120;2024-03-02T08:37:18;98135.81;;;13.43;57.15
8039;BME280;4062;49.844;8.120;2024-03-02T08:39:19;98139.31;;;13.44;57.02
8039;BME280;4062;49.844;8.120;2024-03-02T08:41:20;98140.19;;;13.44;57.09
8039;BME280;4062;49.844;8.120;2024-03-02T08:43:47;98135.81;;;13.43;57.12
8039;BME280;4062;49.844;8.120;2024-03-02T08:45:49;98140.19;;;13.44;57.23
8039;BME280;4062;49.844;8.120;2024-03-02T08:47:51;98139.22;;;13.45;57.21
8039;BME280;4062;49.844;8.120;2024-03-02T08:52:11;98142.84;;;13.44;57.23
8039;BME280;4062;49.844;8.120;2024-03-02T08:54:18;98148.16;;;13.44;57.11
8039;BME280;4062;49.844;8.120;2024-03-02T08:57:19;98150.81;;;13.44;57.10
8039;BME280;4062;49.844;8.120;2024-03-02T08:59:20;98154.31;;;13.45;57.17
8039;BME280;4062;49.844;8.120;2024-03-02T09:01:21;98156.13;;;13.44;57.10
8039;BME280;4062;49.844;8.120;2024-03-02T09:03:22;98148.16;;;13.44;57.19
8039;BME280;4062;49.844;8.120;2024-03-02T09:05:24;98140.19;;;13.44;57.15
8039;BME280;4062;49.844;8.120;2024-03-02T09:07:25;98140.19;;;13.44;57.17
8039;BME280;4062;49.844;8.120;2024-03-02T09:09:26;98136.66;;;13.44;57.20
8039;BME280;4062;49.844;8.120;2024-03-02T09:11:27;98147.28;;;13.44;57.18
8039;BME280;4062;49.844;8.120;2024-03-02T09:13:29;98141.97;;;13.44;57.18
8039;BME280;4062;49.844;8.120;2024-03-02T09:15:30;98144.63;;;13.44;57.20
8039;BME280;4062;49.844;8.120;2024-03-02T09:17:32;98141.97;;;13.44;57.23
8039;BME280;4062;49.844;8.120;2024-03-02T09:19:33;98146.44;;;13.43;57.20
8039;BME280;4062;49.844;8.120;2024-03-02T09:21:35;98142.84;;;13.44;57.23
8039;BME280;4062;49.844;8.120;2024-03-02T09:23:36;98145.56;;;13.43;57.16
8039;BME280;4062;49.844;8.120;2024-03-02T09:25:37;98146.44;;;13.43;57.24
8039;BME280;4062;49.844;8.120;2024-03-02T09:27:39;98149.09;;;13.43;57.16
8039;BME280;4062;49.844;8.120;2024-03-02T09:29:40;98143.78;;;13.43;57.22
8039;BME280;4062;49.844;8.120;2024-03-02T09:31:43;98141.97;;;13.44;57.23
8039;BME280;4062;49.844;8.120;2024-03-02T09:33:44;98141.13;;;13.43;57.30
8039;BME280;4062;49.844;8.120;2024-03-02T09:35:45;98141.13;;;13.43;57.24
8039;BME280;4062;49.844;8.120;2024-03-02T09:37:46;98141.13;;;13.43;57.06
8039;BME280;4062;49.844;8.120;2024-03-02T09:39:48;98141.13;;;13.43;57.20
8039;BME280;4062;49.844;8.120;2024-03-02T09:41:49;98144.72;;;13.42;57.16
8039;BME280;4062;49.844;8.120;2024-03-02T09:43:51;98140.25;;;13.43;57.21
8039;BME280;4062;49.844;8.120;2024-03-02T09:45:52;98141.13;;;13.43;57.29
8039;BME280;4062;49.844;8.120;2024-03-02T09:47:55;98138.47;;;13.43;57.22
8039;BME280;4062;49.844;8.120;2024-03-02T09:49:57;98136.66;;;13.44;57.08
8039;BME280;4062;49.844;8.120;2024-03-02T09:51:58;98137.59;;;13.43;57.24
8039;BME280;4062;49.844;8.120;2024-03-02T09:54:01;98140.25;;;13.43;57.27
8039;BME280;4062;49.844;8.120;2024-03-02T09:56:03;98142.91;;;13.43;57.21
8039;BME280;4062;49.844;8.120;2024-03-02T09:58:05;98134.09;;;13.42;57.11
8039;BME280;4062;49.844;8.120;2024-03-02T10:00:07;98137.59;;;13.43;57.32
8039;BME280;4062;49.844;8.120;2024-03-02T10:02:09;98135.88;;;13.42;57.10
8039;BME280;4062;49.844;8.120;2024-03-02T10:04:10;98135.81;;;13.43;57.12
8039;BME280;4062;49.844;8.120;2024-03-02T10:06:23;98134.88;;;13.44;57.11
8039;BME280;4062;49.844;8.120;2024-03-02T10:08:24;98131.34;;;13.44;57.13
8039;BME280;4062;49.844;8.120;2024-03-02T10:10:38;98132.22;;;13.44;57.09
8039;BME280;4062;49.844;8.120;2024-03-02T10:12:42;98133.06;;;13.45;57.08
8039;BME280;4062;49.844;8.120;2024-03-02T10:14:44;98131.25;;;13.45;57.17
8039;BME280;4062;49.844;8.120;2024-03-02T10:16:45;98136.56;;;13.45;57.05
8039;BME280;4062;49.844;8.120;2024-03-02T10:18:47;98129.47;;;13.46;57.14
8039;BME280;4062;49.844;8.120;2024-03-02T10:20:49;98125.03;;;13.47;56.97
8039;BME280;4062;49.844;8.120;2024-03-02T10:22:50;98128.53;;;13.47;57.10
8039;BME280;4062;49.844;8.120;2024-03-02T10:24:57;98119.72;;;13.47;57.02
8039;BME280;4062;49.844;8.120;2024-03-02T10:26:58;98123.25;;;13.47;57.09
8039;BME280;4062;49.844;8.120;2024-03-02T10:29:00;98123.25;;;13.47;57.13
8039;BME280;4062;49.844;8.120;2024-03-02T10:31:01;98117.06;;;13.47;57.04
8039;BME280;4062;49.844;8.120;2024-03-02T10:33:03;98117.06;;;13.47;57.01
8039;BME280;4062;49.844;8.120;2024-03-02T10:35:06;98122.38;;;13.47;57.10
8039;BME280;4062;49.844;8.120;2024-03-02T10:37:10;98121.44;;;13.48;57.09
8039;BME280;4062;49.844;8.120;2024-03-02T10:39:13;98113.47;;;13.48;56.98
8039;BME280;4062;49.844;8.120;2024-03-02T10:41:19;98117.94;;;13.47;57.20
8039;BME280;4062;49.844;8.120;2024-03-02T10:43:22;98116.13;;;13.48;57.13
8039;BME280;4062;49.844;8.120;2024-03-02T10:45:24;98114.41;;;13.47;57.18
8039;BME280;4062;49.844;8.120;2024-03-02T10:47:26;98116.13;;;13.48;57.12
8039;BME280;4062;49.844;8.120;2024-03-02T10:49:30;98113.47;;;13.48;57.08
8039;BME280;4062;49.844;8.120;2024-03-02T10:51:33;98104.66;;;13.47;56.99
8039;BME280;4062;49.844;8.120;2024-03-02T10:53:34;98105.50;;;13.48;57.12
8039;BME280;4062;49.844;8.120;2024-03-02T10:55:36;98104.66;;;13.47;57.17
8039;BME280;4062;49.844;8.120;2024-03-02T10:57:51;98100.19;;;13.48;57.13
8039;BME280;4062;49.844;8.120;2024-03-02T10:59:57;98101.06;;;13.48;57.13
8039;BME280;4062;49.844;8.120;2024-03-02T11:02:03;98102.00;;;13.47;57.20
8039;BME280;4062;49.844;8.120;2024-03-02T11:04:08;98104.66;;;13.47;57.09
8039;BME280;4062;49.844;8.120;2024-03-02T11:06:10;98094.06;;;13.47;57.12
8039;BME280;4062;49.844;8.120;2024-03-02T11:08:18;98097.53;;;13.48;57.19
8039;BME280;4062;49.844;8.120;2024-03-02T11:10:24;98094.06;;;13.47;57.15